Flight Track Log - Related Links

Times and Time Zones

All times are in EDT time to prevent confusion due to time zone crossing. See the SKW4664 flight status page for this flight to view local times or setup timezone preferences in your user account.

Time Position Orientation Groundspeed Altitude Reporting Facility
EDT Latitude Longitude Course Direction KTS MPH feet Rate Location/Type
Sun 10:36:42 AM 44.8333 -93.2333 235° Southwest 178 205 2,800  Level Minneapolis TRACON
Sun 10:37:42 AM 44.7833 -93.2833 215° Southwest 246 283 5,300 2,737 Climbing Minneapolis TRACON
Sun 10:38:36 AM 44.7500 -93.3500 235° Southwest 272 313 8,000 2,880 Climbing Minneapolis TRACON
Sun 10:38:57 AM 44.7367 -93.3892 244° Southwest 269 310 8,900 2,122 Climbing Minneapolis Center
Sun 10:39:00 AM 44.6433 -93.7135 235° Southwest  Level FlightAware Approximate
Sun 10:39:58 AM 44.6969 -93.4833 239° Southwest 281 323 10,900  Level Minneapolis Center
Sun 10:40:00 AM 44.5791 -93.8376 215° Southwest  Level FlightAware Approximate
Sun 10:41:00 AM 44.5072 -93.9523 235° Southwest  Level FlightAware Approximate
Sun 10:41:00 AM 44.6508 -93.5981 241° Southwest 340 391 12,000  Level Minneapolis Center
Sun 10:42:00 AM 44.4444 -94.0780 235° Southwest  Level FlightAware Approximate
Sun 10:42:02 AM 44.6058 -93.7206 243° Southwest 355 409 13,700  Level Minneapolis Center
Sun 10:43:04 AM 44.5647 -93.8514 246° West 367 422 15,400 1,113 Climbing Minneapolis Center
Sun 10:44:06 AM 44.5136 -94.0100 246° West 377 434 16,000 677 Climbing Minneapolis Center
Sun 10:45:08 AM 44.4697 -94.1456 246° West 382 440 16,800 774 Climbing Minneapolis Center
Sun 10:46:10 AM 44.4261 -94.2797 246° West 381 438 17,600 726 Climbing Minneapolis Center
Sun 10:47:12 AM 44.3819 -94.4144 245° Southwest 384 442 18,300 677 Climbing Minneapolis Center
Sun 10:48:14 AM 44.3386 -94.5483 246° West 380 437 19,000 677 Climbing Minneapolis Center
Sun 10:49:16 AM 44.2883 -94.6992 245° Southwest 381 438 19,700 634 Climbing Minneapolis Center
Sun 10:50:17 AM 44.2419 -94.8403 245° Southwest 396 456 20,300 732 Climbing Minneapolis Center
Sun 10:51:19 AM 44.1933 -94.9819 244° Southwest 404 465 21,200 816 Climbing Minneapolis Center
Sun 10:52:22 AM 44.1456 -95.1242 245° Southwest 404 465 22,000 387 Climbing Minneapolis Center
Sun 10:53:23 AM 44.0975 -95.2683 245° Southwest 409 471 22,000  Level Minneapolis Center
Sun 10:54:25 AM 44.0394 -95.4364 244° Southwest 403 464 22,000  Level Minneapolis Center
Sun 10:55:27 AM 43.9914 -95.5750 244° Southwest 399 459 22,000 -726 Level Minneapolis Center
Sun 10:56:29 AM 43.9433 -95.7156 245° Southwest 401 461 20,500 -2,371 Descending Minneapolis Center
Sun 10:57:31 AM 43.8956 -95.8542 244° Southwest 398 458 17,100 -2,952 Descending Minneapolis Center
Sun 10:58:33 AM 43.8503 -95.9858 245° Southwest 381 438 14,400 -2,390 Descending Minneapolis Center
Sun 10:59:34 AM 43.8086 -96.1086 245° Southwest 361 415 12,200 -1,597 Descending Minneapolis Center
Sun 11:00:37 AM 43.7697 -96.2144 243° Southwest 334 384 11,100 -1,728 Descending Minneapolis Center
Sun 11:01:39 AM 43.7208 -96.2939 230° Southwest 309 356 8,600 -1,935 Descending Minneapolis Center
Sun 11:02:41 AM 43.6500 -96.3572 213° Southwest 270 311 7,100 -976 Descending Minneapolis Center
Sun 11:03:42 AM 43.5939 -96.4067 213° Southwest 253 291 6,600 -1,024 Descending Minneapolis Center
Sun 11:04:44 AM 43.5339 -96.4558 211° Southwest 249 287 5,000 -1,016 Descending Minneapolis Center
Sun 11:05:46 AM 43.4814 -96.5117 218° Southwest 243 280 4,500 -195 Descending Minneapolis Center
Sun 11:06:47 AM 43.4414 -96.5564 219° Southwest 212 244 4,600 49 Climbing Minneapolis Center
Sun 11:07:49 AM 43.3992 -96.6003 217° Southwest 197 227 4,600  Level Minneapolis Center
Sun 11:08:51 AM 43.3700 -96.6594 236° Southwest 188 216 4,600  Level Minneapolis Center
Sun 11:09:53 AM 43.3472 -96.7336 247° West 189 217 4,600 -195 Level Minneapolis Center
Sun 11:10:54 AM 43.3481 -96.7967 271° West 175 201 4,200 -488 Descending Minneapolis Center
Sun 11:11:56 AM 43.3642 -96.8519 292° West 165 190 3,600 -339 Descending Minneapolis Center
Sun 11:12:58 AM 43.3886 -96.8906 311° West 161 185 3,500 -49 Descending Minneapolis Center
Sun 11:13:59 AM 43.4308 -96.8864 North 154 177 3,500 -49 Level Minneapolis Center
Sun 11:15:01 AM 43.4692 -96.8583 28° Northeast 154 177 3,400 -145 Descending Minneapolis Center
Sun 11:16:03 AM 43.5025 -96.8233 37° Northeast 154 177 3,200 -194 Descending Minneapolis Center

Login

Don't have an account? Register now (free) for customized features, flight alerts, and more!